createdAt,value
2023-01-30T00:00:06.660Z,29.62
2023-01-30T00:01:06.596Z,37.42
2023-01-30T00:02:06.592Z,38.85
2023-01-30T00:03:06.473Z,32.14
2023-01-30T00:04:06.487Z,37.78
2023-01-30T00:05:06.377Z,34.58
2023-01-30T00:06:06.279Z,33.31
2023-01-30T00:07:06.223Z,36.36
2023-01-30T00:08:06.148Z,36.81
2023-01-30T00:09:06.088Z,38.48
2023-01-30T00:10:06.022Z,37.11
2023-01-30T00:11:06.032Z,32.17
2023-01-30T00:12:05.900Z,33.15
2023-01-30T00:13:05.839Z,38.52
2023-01-30T00:14:06.250Z,28.98
2023-01-30T00:15:05.706Z,27.94
2023-01-30T00:16:05.702Z,33.60
2023-01-30T00:17:05.589Z,28.37
2023-01-30T00:18:05.526Z,39.14
2023-01-30T00:19:05.458Z,41.03
2023-01-30T00:20:05.387Z,39.45
2023-01-30T00:21:05.322Z,31.80
2023-01-30T00:22:05.335Z,33.57
2023-01-30T00:23:05.419Z,33.21
2023-01-30T00:24:05.353Z,37.42
2023-01-30T00:25:05.480Z,33.28
2023-01-30T00:26:05.407Z,37.06
2023-01-30T00:27:05.373Z,37.35
2023-01-30T00:28:05.382Z,29.13
2023-01-30T00:29:05.390Z,33.51
2023-01-30T00:30:05.400Z,29.17
2023-01-30T00:31:05.469Z,34.15
2023-01-30T00:32:05.478Z,35.47
2023-01-30T00:33:05.437Z,29.21
2023-01-30T00:34:05.436Z,31.33
2023-01-30T00:35:05.417Z,34.61
2023-01-30T00:36:05.501Z,34.43
2023-01-30T00:37:08.378Z,26.03
2023-01-30T00:38:05.384Z,37.10
2023-01-30T00:39:05.320Z,34.18
2023-01-30T00:40:05.247Z,33.32
2023-01-30T00:41:05.172Z,34.33
2023-01-30T00:42:05.104Z,43.27
2023-01-30T00:43:05.041Z,32.48
2023-01-30T00:44:05.057Z,39.12
2023-01-30T00:45:04.940Z,33.69
2023-01-30T00:46:04.955Z,34.96
2023-01-30T00:47:04.802Z,27.97
2023-01-30T00:48:04.743Z,28.14
2023-01-30T00:49:04.687Z,30.44
2023-01-30T00:50:04.610Z,31.73
2023-01-30T00:51:05.232Z,38.10
2023-01-30T00:52:04.486Z,35.95
2023-01-30T00:53:04.435Z,31.40
2023-01-30T00:54:04.388Z,33.19
2023-01-30T00:55:04.313Z,32.19
2023-01-30T00:56:04.306Z,37.06
2023-01-30T00:57:04.174Z,33.77
2023-01-30T00:58:04.129Z,36.32
2023-01-30T00:59:04.071Z,35.00
2023-01-30T01:00:04.016Z,24.46
2023-01-30T01:01:03.950Z,35.52
2023-01-30T01:02:04.013Z,37.98
2023-01-30T01:03:03.841Z,31.04
2023-01-30T01:04:03.776Z,36.96
2023-01-30T01:05:03.707Z,30.77
2023-01-30T01:06:03.644Z,40.99
2023-01-30T01:07:03.575Z,38.40
2023-01-30T01:08:03.569Z,40.32
2023-01-30T01:09:03.540Z,38.06
2023-01-30T01:10:03.391Z,40.27
2023-01-30T01:11:03.392Z,30.64
2023-01-30T01:12:03.258Z,42.14
2023-01-30T01:50:02.845Z,30.85
2023-01-30T01:52:02.818Z,31.59
2023-01-30T01:53:02.796Z,30.65
2023-01-30T01:54:02.764Z,26.12
2023-01-30T01:55:02.752Z,29.93
2023-01-30T01:56:02.708Z,27.91
2023-01-30T01:57:02.689Z,34.51
2023-01-30T01:58:02.659Z,30.16
2023-01-30T01:59:02.636Z,29.90
2023-01-30T02:00:02.620Z,29.45
2023-01-30T02:01:02.595Z,29.25
2023-01-30T02:02:02.584Z,28.80
2023-01-30T02:03:02.543Z,29.91
2023-01-30T02:04:02.504Z,29.07
2023-01-30T02:05:02.514Z,29.69
2023-01-30T02:06:02.496Z,30.10
2023-01-30T02:07:02.462Z,27.16
2023-01-30T02:08:02.417Z,33.02
2023-01-30T02:09:02.373Z,30.15
2023-01-30T02:10:02.359Z,27.89
2023-01-30T02:11:02.325Z,28.13
2023-01-30T02:12:02.271Z,29.24
2023-01-30T02:13:02.250Z,28.76
2023-01-30T02:14:02.221Z,29.98
2023-01-30T02:15:02.178Z,29.54
2023-01-30T02:16:02.168Z,29.82
2023-01-30T02:17:02.120Z,30.31
2023-01-30T02:18:02.089Z,27.70
2023-01-30T02:19:02.064Z,31.76
2023-01-30T02:20:02.033Z,30.46
2023-01-30T02:21:01.993Z,29.41
2023-01-30T02:22:01.966Z,28.96
2023-01-30T02:23:01.929Z,30.63
2023-01-30T02:24:01.880Z,28.85
2023-01-30T02:25:01.847Z,29.41
2023-01-30T02:26:01.803Z,29.56
2023-01-30T02:27:01.787Z,32.49
2023-01-30T02:28:01.732Z,30.42
2023-01-30T02:29:01.687Z,29.73
2023-01-30T02:30:01.654Z,30.76
2023-01-30T02:31:01.757Z,30.03
2023-01-30T02:32:01.594Z,29.37
2023-01-30T02:33:01.562Z,30.48
2023-01-30T02:34:01.493Z,29.98
2023-01-30T02:35:01.443Z,29.78
2023-01-30T02:36:01.409Z,30.38
2023-01-30T02:37:01.365Z,33.47
2023-01-30T02:38:01.343Z,31.18
2023-01-30T02:39:01.286Z,29.72
2023-01-30T02:40:01.263Z,28.55
2023-01-30T02:41:01.206Z,28.83
2023-01-30T02:42:01.181Z,28.75
2023-01-30T02:43:01.154Z,32.24
2023-01-30T02:44:01.107Z,27.64
2023-01-30T02:45:01.158Z,28.16
2023-01-30T02:46:01.066Z,33.52
2023-01-30T02:47:01.010Z,32.39
2023-01-30T02:48:00.949Z,28.83
2023-01-30T02:49:00.901Z,31.30
2023-01-30T02:50:00.868Z,27.97
2023-01-30T02:51:00.819Z,31.16
2023-01-30T02:52:00.777Z,32.08
2023-01-30T02:53:00.737Z,28.11
2023-01-30T02:54:00.703Z,31.00
2023-01-30T02:55:00.654Z,29.51
2023-01-30T02:56:00.725Z,30.54
2023-01-30T02:57:00.596Z,26.71
2023-01-30T02:58:00.521Z,28.00
2023-01-30T02:59:00.487Z,29.54
2023-01-30T03:00:00.448Z,30.65
2023-01-30T03:01:00.487Z,27.66
2023-01-30T03:02:00.362Z,29.87
2023-01-30T03:03:00.372Z,28.01
2023-01-30T03:04:00.293Z,29.86
2023-01-30T03:05:00.232Z,26.34
2023-01-30T03:06:00.186Z,27.44
2023-01-30T03:07:00.162Z,29.30
2023-01-30T03:08:00.123Z,29.00
2023-01-30T03:09:00.099Z,27.88
2023-01-30T03:10:00.045Z,26.50
2023-01-30T03:11:00.012Z,28.18
2023-01-30T03:11:59.950Z,28.22
2023-01-30T03:12:59.908Z,25.43
2023-01-30T03:13:59.860Z,27.97
2023-01-30T03:14:59.853Z,29.28
2023-01-30T03:15:59.898Z,30.81
2023-01-30T03:16:59.776Z,25.72
2023-01-30T03:17:59.704Z,29.61
2023-01-30T03:18:59.731Z,29.17
2023-01-30T03:19:59.630Z,29.26
2023-01-30T03:20:59.588Z,30.37
2023-01-30T03:21:59.588Z,31.32
2023-01-30T03:22:59.550Z,27.98
2023-01-30T03:23:59.503Z,28.44
2023-01-30T03:24:59.470Z,30.08
2023-01-30T03:25:59.430Z,27.09
2023-01-30T03:26:59.430Z,27.15
2023-01-30T03:27:59.370Z,28.17
2023-01-30T03:28:59.329Z,29.21
2023-01-30T03:29:59.301Z,29.67
2023-01-30T03:30:59.343Z,28.95
2023-01-30T03:31:59.303Z,31.00
2023-01-30T03:32:59.198Z,27.21
2023-01-30T03:33:59.156Z,26.18
2023-01-30T03:34:59.138Z,29.61
2023-01-30T03:35:59.787Z,28.55
2023-01-30T03:36:59.062Z,29.92
2023-01-30T03:37:59.033Z,29.42
2023-01-30T03:38:59.001Z,30.19
2023-01-30T03:39:58.964Z,29.75
2023-01-30T03:40:58.936Z,26.86
2023-01-30T03:41:58.895Z,28.86
2023-01-30T03:42:58.870Z,29.49
2023-01-30T03:43:59.288Z,28.32
2023-01-30T03:44:58.805Z,27.53
2023-01-30T03:45:58.793Z,27.29
2023-01-30T03:46:58.739Z,29.71
2023-01-30T03:47:58.689Z,29.24
2023-01-30T03:48:58.663Z,30.13
2023-01-30T03:49:58.627Z,29.83
2023-01-30T03:50:58.591Z,27.90
2023-01-30T03:51:58.545Z,27.04
2023-01-30T03:52:58.518Z,30.96
2023-01-30T03:53:58.492Z,29.93
2023-01-30T03:54:58.445Z,29.58
2023-01-30T03:55:58.428Z,29.23
2023-01-30T03:56:58.365Z,28.62
2023-01-30T03:57:58.346Z,29.32
2023-01-30T03:58:58.302Z,27.69
2023-01-30T03:59:58.262Z,26.85
2023-01-30T04:00:58.249Z,25.68
2023-01-30T04:01:58.186Z,28.54
2023-01-30T04:02:58.135Z,28.13
2023-01-30T04:03:58.091Z,27.16
2023-01-30T04:04:58.063Z,28.51
2023-01-30T04:05:58.011Z,27.19
2023-01-30T04:06:58.061Z,29.94
2023-01-30T04:07:57.940Z,32.06
2023-01-30T04:08:58.793Z,27.39
2023-01-30T04:09:57.856Z,29.07
2023-01-30T04:10:57.804Z,30.64
2023-01-30T04:11:57.758Z,32.90
2023-01-30T04:12:57.733Z,28.45
2023-01-30T04:13:57.685Z,29.95
2023-01-30T04:14:57.636Z,31.34
2023-01-30T04:15:57.605Z,31.41
2023-01-30T04:16:57.633Z,27.88
2023-01-30T04:17:57.530Z,30.36
2023-01-30T04:18:57.485Z,28.20
2023-01-30T04:19:57.440Z,30.50
2023-01-30T04:20:57.399Z,29.49
2023-01-30T04:21:57.380Z,28.44
2023-01-30T04:22:57.319Z,28.78
2023-01-30T04:23:57.352Z,30.70
2023-01-30T04:24:57.249Z,31.51
2023-01-30T04:25:57.179Z,29.46
2023-01-30T04:26:57.133Z,28.55
2023-01-30T04:27:57.173Z,30.35
2023-01-30T04:28:57.125Z,31.87
2023-01-30T04:29:57.026Z,31.13
2023-01-30T04:30:57.097Z,28.07
2023-01-30T04:31:56.931Z,30.36
2023-01-30T04:32:56.888Z,30.10
2023-01-30T04:33:56.852Z,28.20
2023-01-30T04:34:56.818Z,29.16
2023-01-30T04:35:56.766Z,29.06
2023-01-30T04:36:57.303Z,27.39
2023-01-30T04:37:56.695Z,29.86
2023-01-30T04:38:57.304Z,29.85
2023-01-30T04:39:56.616Z,28.42
2023-01-30T04:40:56.552Z,29.83
2023-01-30T04:41:56.590Z,28.88
2023-01-30T04:42:57.361Z,30.15
2023-01-30T04:43:56.425Z,32.67
2023-01-30T04:44:56.383Z,29.98
2023-01-30T04:45:56.341Z,26.68
2023-01-30T04:46:56.281Z,30.55
2023-01-30T04:47:56.232Z,25.28
2023-01-30T04:48:56.200Z,31.92
2023-01-30T04:49:56.156Z,29.26
2023-01-30T04:50:56.122Z,27.48
2023-01-30T04:51:56.072Z,29.90
2023-01-30T04:52:56.030Z,31.51
2023-01-30T04:53:56.001Z,33.72
2023-01-30T04:54:55.953Z,29.87
2023-01-30T04:55:55.928Z,30.93
2023-01-30T04:56:55.867Z,31.01
2023-01-30T04:57:55.830Z,28.83
2023-01-30T04:58:55.787Z,30.17
2023-01-30T04:59:55.744Z,29.82
2023-01-30T05:00:55.739Z,29.80
2023-01-30T05:01:55.690Z,30.68
2023-01-30T05:02:55.630Z,31.74
2023-01-30T05:03:55.589Z,30.93
2023-01-30T05:04:55.535Z,29.12
2023-01-30T05:05:55.497Z,27.92
2023-01-30T05:06:55.522Z,31.88
2023-01-30T05:07:55.535Z,29.98
2023-01-30T05:09:55.316Z,28.49
2023-01-30T05:10:55.264Z,31.05
2023-01-30T05:11:55.223Z,30.61
2023-01-30T05:12:55.165Z,27.82
2023-01-30T05:13:55.125Z,29.93
2023-01-30T05:59:53.157Z,28.19
2023-01-30T06:04:52.935Z,31.30
2023-01-30T06:05:52.961Z,30.28
2023-01-30T06:06:52.844Z,31.27
2023-01-30T06:07:52.869Z,28.95
2023-01-30T06:09:52.693Z,29.58
2023-01-30T06:10:52.659Z,27.61
2023-01-30T06:11:53.343Z,30.61
2023-01-30T06:12:52.652Z,30.44
2023-01-30T06:13:52.537Z,29.39
2023-01-30T06:14:52.501Z,27.75
2023-01-30T06:15:52.543Z,29.88
2023-01-30T06:16:53.423Z,27.73
2023-01-30T06:17:52.371Z,28.05
2023-01-30T06:18:52.332Z,28.85
2023-01-30T06:19:52.286Z,30.62
2023-01-30T06:20:52.251Z,30.61
2023-01-30T06:21:52.244Z,26.59
2023-01-30T06:22:52.185Z,27.85
2023-01-30T06:23:52.155Z,31.64
2023-01-30T06:24:52.144Z,31.11
2023-01-30T06:25:52.186Z,35.78
2023-01-30T06:26:52.192Z,34.63
2023-01-30T06:27:52.050Z,31.18
2023-01-30T06:28:52.037Z,29.10
2023-01-30T06:29:51.972Z,30.09
2023-01-30T06:30:52.025Z,31.41
2023-01-30T06:31:51.903Z,34.96
2023-01-30T06:32:52.842Z,34.39
2023-01-30T06:33:51.853Z,31.77
2023-01-30T06:34:51.779Z,36.16
2023-01-30T06:36:51.715Z,37.03
2023-01-30T06:37:51.663Z,36.09
2023-01-30T06:38:51.613Z,34.38
2023-01-30T06:39:51.579Z,33.44
2023-01-30T06:40:51.528Z,35.62
2023-01-30T06:41:51.487Z,36.95
2023-01-30T06:42:51.454Z,36.27
2023-01-30T06:43:51.413Z,35.51
2023-01-30T06:44:51.349Z,33.31
2023-01-30T06:45:51.311Z,35.32
2023-01-30T06:46:51.268Z,35.52
2023-01-30T06:47:51.298Z,32.89
2023-01-30T06:48:51.176Z,35.59
2023-01-30T06:49:51.138Z,34.98
2023-01-30T06:50:51.124Z,36.02
2023-01-30T06:57:53.347Z,34.54
2023-01-30T09:44:43.145Z,213.43
2023-01-30T09:45:43.073Z,217.82
2023-01-30T09:46:43.001Z,216.49
2023-01-30T09:47:42.917Z,217.45
2023-01-30T09:48:42.941Z,220.08
2023-01-30T09:49:42.792Z,222.74
2023-01-30T09:50:42.706Z,225.60
2023-01-30T09:51:42.647Z,227.93
2023-01-30T09:52:42.571Z,229.21
2023-01-30T09:53:42.508Z,234.63
2023-01-30T09:54:42.501Z,234.21
2023-01-30T09:55:42.405Z,233.17
2023-01-30T09:56:42.279Z,240.08
2023-01-30T09:57:42.209Z,244.21
2023-01-30T09:58:42.143Z,243.28
2023-01-30T09:59:42.050Z,246.25
2023-01-30T10:00:41.984Z,246.39
2023-01-30T10:01:41.898Z,246.24
2023-01-30T10:02:41.838Z,250.00
2023-01-30T10:03:41.830Z,250.00
2023-01-30T10:04:51.713Z,249.18
2023-01-30T10:05:42.622Z,249.44
2023-01-30T10:06:41.556Z,250.11
2023-01-30T10:07:41.493Z,251.94
2023-01-30T10:08:41.386Z,254.73
2023-01-30T10:09:41.315Z,254.13
2023-01-30T10:10:41.229Z,247.23
2023-01-30T10:11:41.136Z,247.42
2023-01-30T11:23:37.436Z,172.94
2023-01-30T11:24:37.536Z,172.68
2023-01-30T11:25:37.354Z,174.30
2023-01-30T11:26:46.770Z,173.11
2023-01-30T11:27:38.151Z,173.24
2023-01-30T11:28:37.053Z,173.23
2023-01-30T11:29:36.969Z,170.88
2023-01-30T11:30:36.900Z,173.54
2023-01-30T11:31:41.604Z,171.37
2023-01-30T11:32:37.756Z,173.16
2023-01-30T11:33:36.637Z,170.98
2023-01-30T11:34:36.545Z,169.83
2023-01-30T11:35:36.462Z,171.99
2023-01-30T11:36:36.380Z,166.65
2023-01-30T11:37:36.287Z,168.98
2023-01-30T11:38:36.203Z,166.66
2023-01-30T11:39:36.122Z,167.05
2023-01-30T11:40:36.039Z,165.05
2023-01-30T11:41:35.961Z,165.22
2023-01-30T11:42:35.876Z,165.99
2023-01-30T11:43:35.781Z,166.63
2023-01-30T11:44:35.734Z,164.38
2023-01-30T11:45:35.616Z,163.19
2023-01-30T11:46:35.515Z,163.54
2023-01-30T11:47:35.658Z,162.22
2023-01-30T11:49:04.123Z,163.54
2023-01-30T11:49:49.566Z,163.70
2023-01-30T11:50:36.413Z,163.78
2023-01-30T11:51:35.048Z,163.93
2023-01-30T11:52:34.952Z,163.97
2023-01-30T11:53:34.862Z,161.11
2023-01-30T11:54:34.758Z,161.24
2023-01-30T11:55:34.670Z,161.00
2023-01-30T11:56:34.582Z,159.91
2023-01-30T11:57:34.546Z,158.39
2023-01-30T11:58:34.517Z,157.59
2023-01-30T11:59:34.483Z,157.44
2023-01-30T12:00:34.468Z,157.03
2023-01-30T12:01:34.469Z,157.45
2023-01-30T12:02:34.533Z,155.06
2023-01-30T12:04:34.372Z,154.79
2023-01-30T12:05:34.423Z,153.53
2023-01-30T12:06:34.339Z,154.33
2023-01-30T12:07:34.302Z,152.78
2023-01-30T12:08:41.926Z,151.13
2023-01-30T12:09:35.175Z,151.30
2023-01-30T12:10:34.090Z,151.45
2023-01-30T12:11:33.988Z,151.17
2023-01-30T12:12:33.927Z,151.18
2023-01-30T12:13:33.806Z,149.75
2023-01-30T12:14:34.445Z,147.48
2023-01-30T12:15:33.613Z,149.73
2023-01-30T12:16:33.593Z,149.24
2023-01-30T12:17:33.498Z,149.25
2023-01-30T12:18:33.403Z,146.39
2023-01-30T12:19:33.288Z,146.22
2023-01-30T12:20:33.948Z,144.54
2023-01-30T12:21:33.257Z,145.20
2023-01-30T12:22:33.159Z,146.21
2023-01-30T12:23:33.119Z,144.13
2023-01-30T12:24:33.168Z,144.76
2023-01-30T12:25:33.025Z,144.51
2023-01-30T12:26:33.030Z,143.06
2023-01-30T12:27:32.962Z,138.67
2023-01-30T12:28:32.927Z,140.47
2023-01-30T12:29:32.886Z,139.79
2023-01-30T12:30:32.971Z,141.60
2023-01-30T12:31:32.830Z,139.98
2023-01-30T12:33:32.797Z,138.28
2023-01-30T12:34:32.706Z,138.51
2023-01-30T12:35:32.690Z,139.04
2023-01-30T12:36:32.968Z,138.16
2023-01-30T12:37:32.611Z,137.26
2023-01-30T12:38:32.570Z,137.46
2023-01-30T12:39:32.534Z,138.43
2023-01-30T12:40:32.487Z,137.15
2023-01-30T12:41:32.461Z,135.63
2023-01-30T12:42:32.395Z,135.04
2023-01-30T12:43:32.959Z,133.46
2023-01-30T12:44:32.309Z,135.25
2023-01-30T12:45:32.271Z,134.57
2023-01-30T12:46:32.299Z,134.74
2023-01-30T12:47:32.341Z,133.28
2023-01-30T12:48:34.199Z,135.06
2023-01-30T12:49:33.033Z,135.16
2023-01-30T12:50:31.929Z,134.92
2023-01-30T12:51:31.821Z,132.69
2023-01-30T12:52:31.757Z,134.21
2023-01-30T12:53:31.640Z,130.95
2023-01-30T12:54:31.524Z,132.56
2023-01-30T13:42:27.311Z,114.54
2023-01-30T13:43:27.239Z,118.01
2023-01-30T13:44:27.179Z,114.44
2023-01-30T13:45:27.128Z,112.96
2023-01-30T13:47:26.983Z,113.95
2023-01-30T13:48:26.924Z,113.04
2023-01-30T13:49:26.917Z,112.11
2023-01-30T13:50:26.827Z,113.04
2023-01-30T13:51:26.783Z,111.65
2023-01-30T13:52:26.757Z,112.30
2023-01-30T13:53:26.696Z,111.58
2023-01-30T13:54:26.659Z,109.50
2023-01-30T13:55:26.668Z,108.67
2023-01-30T13:56:40.907Z,108.34
2023-01-30T13:58:26.410Z,108.57
2023-01-30T13:59:26.328Z,109.02
2023-01-30T14:00:27.023Z,108.50
2023-01-30T14:02:26.112Z,106.04
2023-01-30T14:03:25.961Z,107.26
2023-01-30T14:04:25.867Z,106.15
2023-01-30T14:05:34.610Z,106.11
2023-01-30T14:06:26.685Z,106.27
2023-01-30T14:07:25.693Z,106.28
2023-01-30T14:08:25.546Z,106.30
2023-01-30T14:09:25.429Z,106.47
2023-01-30T14:10:25.384Z,106.32
2023-01-30T14:11:25.238Z,104.28
2023-01-30T14:12:25.168Z,105.13
2023-01-30T14:13:26.004Z,103.11
2023-01-30T14:14:25.484Z,102.53
2023-01-30T14:15:24.915Z,102.72
2023-01-30T14:16:24.858Z,104.93
2023-01-30T14:17:24.728Z,102.48
2023-01-30T14:18:24.627Z,103.99
2023-01-30T14:19:24.534Z,102.48
2023-01-30T14:20:24.994Z,105.49
2023-01-30T14:21:24.442Z,101.34
2023-01-30T14:22:24.279Z,99.96
2023-01-30T14:23:24.186Z,100.17
2023-01-30T14:24:24.083Z,99.87
2023-01-30T14:26:23.943Z,102.28
2023-01-30T14:48:22.262Z,89.93
2023-01-30T14:55:22.082Z,87.87
2023-01-30T14:56:22.016Z,89.76
2023-01-30T14:57:22.002Z,91.95
2023-01-30T14:58:21.996Z,89.27
2023-01-30T15:00:21.946Z,89.87
2023-01-30T15:01:22.003Z,89.76
2023-01-30T15:02:21.977Z,92.87
2023-01-30T15:03:21.911Z,88.79
2023-01-30T15:04:21.891Z,91.22
2023-01-30T15:05:21.927Z,89.67
2023-01-30T15:07:21.835Z,88.56
2023-01-30T15:08:22.448Z,86.96
2023-01-30T15:09:21.839Z,87.05
2023-01-30T15:10:21.778Z,87.05
2023-01-30T15:11:21.677Z,89.05
2023-01-30T15:12:21.619Z,87.25
2023-01-30T15:13:21.519Z,86.69
2023-01-30T15:14:21.468Z,86.94
2023-01-30T17:17:15.620Z,75.60
2023-01-30T17:18:15.567Z,76.01
2023-01-30T17:19:15.519Z,73.07
2023-01-30T17:20:15.512Z,74.77
2023-01-30T18:30:17.196Z,73.12
2023-01-30T18:31:14.775Z,75.99
2023-01-30T18:32:14.547Z,73.59
2023-01-30T18:33:14.476Z,75.47
2023-01-30T18:34:14.391Z,71.73
2023-01-30T18:35:14.328Z,72.48
2023-01-30T18:36:14.265Z,74.51
2023-01-30T18:37:14.174Z,72.07
2023-01-30T18:38:14.109Z,72.75
2023-01-30T18:39:14.024Z,69.87
2023-01-30T18:40:14.087Z,71.93
2023-01-30T18:41:13.914Z,78.56
2023-01-30T18:42:13.809Z,72.98
2023-01-30T18:43:13.733Z,71.38
2023-01-30T18:44:13.670Z,71.74
2023-01-30T18:45:13.687Z,73.96
2023-01-30T18:46:13.561Z,71.95
2023-01-30T18:47:13.447Z,70.79
2023-01-30T18:48:13.388Z,72.62
2023-01-30T18:49:13.315Z,75.00
2023-01-30T18:50:13.259Z,74.95
2023-01-30T18:51:14.083Z,71.95
2023-01-30T18:52:13.115Z,69.09
2023-01-30T18:53:13.057Z,73.08
2023-01-30T18:54:12.980Z,70.21
2023-01-30T18:55:12.908Z,73.48
2023-01-30T18:56:12.837Z,71.97
2023-01-30T18:57:12.766Z,71.62
2023-01-30T18:58:12.745Z,72.10
2023-01-30T18:59:12.608Z,73.71
2023-01-30T19:00:12.556Z,72.25
2023-01-30T19:01:12.493Z,73.24
2023-01-30T19:02:12.510Z,72.49
2023-01-30T19:03:13.076Z,72.31
2023-01-30T19:04:12.271Z,70.20
2023-01-30T19:05:12.197Z,74.89
2023-01-30T19:06:12.132Z,76.75
2023-01-30T19:07:12.135Z,71.06
2023-01-30T19:08:12.126Z,75.03
2023-01-30T19:09:12.155Z,69.10
2023-01-30T19:10:12.130Z,72.36
2023-01-30T19:11:12.124Z,70.39
2023-01-30T19:12:12.137Z,68.54
2023-01-30T19:13:13.101Z,73.72
2023-01-30T19:14:12.100Z,74.22
2023-01-30T19:15:12.150Z,74.26
2023-01-30T19:16:12.173Z,73.86
2023-01-30T19:17:12.113Z,73.07
2023-01-30T19:18:12.016Z,70.63
2023-01-30T19:19:11.985Z,68.65
2023-01-30T19:20:12.006Z,72.99
2023-01-30T19:21:11.954Z,70.56
2023-01-30T19:22:11.984Z,69.82
2023-01-30T19:23:11.938Z,72.02
2023-01-30T19:24:12.099Z,74.35
2023-01-30T19:25:11.858Z,72.32
2023-01-30T19:26:11.883Z,70.06
2023-01-30T19:27:11.788Z,72.88
2023-01-30T19:28:11.783Z,71.69
2023-01-30T19:29:11.771Z,73.77
2023-01-30T19:30:11.693Z,69.47
2023-01-30T19:31:11.685Z,71.98
2023-01-30T19:32:11.608Z,72.81
2023-01-30T19:33:11.551Z,71.39
2023-01-30T19:34:11.511Z,72.73
2023-01-30T19:35:11.440Z,72.10
2023-01-30T19:36:11.384Z,73.41
2023-01-30T19:37:11.348Z,71.93
2023-01-30T19:38:11.273Z,72.87
2023-01-30T19:39:11.223Z,72.31
2023-01-30T19:40:11.178Z,73.49
2023-01-30T19:41:11.179Z,70.72
2023-01-30T19:42:11.066Z,69.08
2023-01-30T19:43:11.321Z,68.79
2023-01-30T19:44:10.999Z,71.88
2023-01-30T19:45:10.951Z,69.49
2023-01-30T19:46:11.029Z,71.54
2023-01-30T19:47:10.869Z,69.47
2023-01-30T19:48:10.815Z,72.24
2023-01-30T19:49:10.761Z,70.34
2023-01-30T19:50:10.819Z,70.45
2023-01-30T19:51:10.672Z,70.35
2023-01-30T19:52:10.633Z,72.00
2023-01-30T19:53:10.567Z,71.87
2023-01-30T19:54:10.534Z,70.10
2023-01-30T19:55:10.430Z,72.69
2023-01-30T19:56:10.362Z,72.68
2023-01-30T19:57:10.302Z,68.96
2023-01-30T19:58:10.238Z,70.69
2023-01-30T19:59:10.169Z,72.33
2023-01-30T20:00:10.084Z,70.28
2023-01-30T20:01:10.058Z,70.92
2023-01-30T20:02:09.969Z,68.31
2023-01-30T20:03:09.966Z,72.10
2023-01-30T20:04:09.863Z,72.35
2023-01-30T20:05:09.782Z,72.62
2023-01-30T20:06:12.076Z,70.09
2023-01-30T20:07:09.639Z,70.77
2023-01-30T20:08:10.997Z,73.20
2023-01-30T20:09:10.488Z,73.37
2023-01-30T20:10:09.428Z,71.71
2023-01-30T20:11:09.359Z,71.68
2023-01-30T20:12:09.301Z,73.35
2023-01-30T20:13:09.218Z,68.97
2023-01-30T20:14:09.139Z,68.92
2023-01-30T20:15:09.071Z,70.14
2023-01-30T20:16:09.047Z,70.28
2023-01-30T20:17:08.946Z,70.79
2023-01-30T20:18:08.933Z,69.44
2023-01-30T20:19:08.809Z,72.29
2023-01-30T20:20:08.733Z,71.16
2023-01-30T20:21:08.651Z,69.06
2023-01-30T20:22:08.620Z,72.24
2023-01-30T20:23:08.510Z,69.33
2023-01-30T20:24:08.431Z,70.13
2023-01-30T20:25:08.381Z,71.14
2023-01-30T20:26:08.297Z,70.06
2023-01-30T20:27:08.226Z,71.26
2023-01-30T20:28:08.220Z,69.43
2023-01-30T20:29:08.082Z,72.17
2023-01-30T20:30:08.021Z,67.74
2023-01-30T20:31:08.133Z,69.82
2023-01-30T20:32:08.115Z,70.47
2023-01-30T20:33:07.799Z,70.53
2023-01-30T20:34:07.728Z,72.17
2023-01-30T20:35:07.647Z,71.98
2023-01-30T20:36:07.584Z,68.84
2023-01-30T20:37:07.500Z,70.71
2023-01-30T20:38:07.579Z,69.69
2023-01-30T20:39:07.713Z,71.24
2023-01-30T20:40:07.280Z,72.03
2023-01-30T20:41:07.211Z,69.41
2023-01-30T20:42:07.152Z,72.86
2023-01-30T20:43:07.061Z,70.88
2023-01-30T20:44:06.993Z,69.08
2023-01-30T20:45:06.928Z,72.83
2023-01-30T20:46:06.841Z,69.73
2023-01-30T20:47:06.894Z,69.77
2023-01-30T20:48:06.718Z,67.58
2023-01-30T20:49:06.641Z,72.47
2023-01-30T20:50:06.561Z,72.09
2023-01-30T20:51:06.502Z,70.47
2023-01-30T21:33:03.721Z,67.58
2023-01-30T21:34:03.673Z,69.67
2023-01-30T21:35:03.609Z,68.11
2023-01-30T21:36:03.563Z,71.08
2023-01-30T21:37:03.556Z,70.28
2023-01-30T21:38:03.432Z,70.39
2023-01-30T21:39:03.372Z,71.72
2023-01-30T21:40:03.304Z,71.59
2023-01-30T21:41:03.254Z,68.33
2023-01-30T21:42:03.219Z,69.46
2023-01-30T21:43:03.140Z,70.50
2023-01-30T21:44:03.085Z,68.82
2023-01-30T21:45:03.040Z,70.58
2023-01-30T21:46:03.035Z,69.67
2023-01-30T21:47:02.901Z,67.79
2023-01-30T21:48:02.857Z,66.55
2023-01-30T21:49:02.806Z,69.06
2023-01-30T21:50:02.749Z,69.21
2023-01-30T21:51:02.678Z,68.64
2023-01-30T21:52:02.612Z,69.64
2023-01-30T21:53:02.543Z,69.16
2023-01-30T21:54:02.496Z,69.38
2023-01-30T21:55:02.447Z,70.11
2023-01-30T21:56:02.399Z,65.21
2023-01-30T21:57:02.334Z,68.77
2023-01-30T21:58:02.263Z,69.15
2023-01-30T21:59:02.211Z,69.51
2023-01-30T22:00:02.174Z,67.86
2023-01-30T22:01:02.146Z,68.14
2023-01-30T22:02:02.043Z,69.98
2023-01-30T22:03:01.986Z,68.04
2023-01-30T22:04:01.926Z,68.72
2023-01-30T22:05:01.883Z,69.33
2023-01-30T22:06:02.161Z,69.49
2023-01-30T22:07:01.769Z,66.90
2023-01-30T22:08:01.705Z,67.70
2023-01-30T22:09:01.647Z,68.09
2023-01-30T22:10:01.600Z,67.04
2023-01-30T22:11:01.594Z,68.06
2023-01-30T22:12:01.501Z,67.55
2023-01-30T22:15:01.649Z,67.83
2023-01-30T23:32:57.219Z,62.61
2023-01-30T23:33:57.166Z,63.53
2023-01-30T23:34:57.110Z,65.41
2023-01-30T23:35:57.063Z,64.71
2023-01-30T23:36:57.006Z,63.84
2023-01-30T23:37:56.963Z,63.84
2023-01-30T23:38:56.910Z,61.52
2023-01-30T23:40:56.825Z,61.72
2023-01-30T23:41:56.755Z,63.60
2023-01-30T23:42:56.730Z,63.57
2023-01-30T23:43:56.657Z,63.47
2023-01-30T23:44:57.171Z,60.16
2023-01-30T23:45:56.587Z,63.50
2023-01-30T23:46:56.522Z,63.14
2023-01-30T23:47:56.470Z,64.87
2023-01-30T23:48:56.432Z,63.80
2023-01-30T23:49:56.387Z,62.19
2023-01-30T23:50:56.321Z,60.87
2023-01-30T23:51:56.280Z,63.94
2023-01-30T23:52:56.229Z,62.50
2023-01-30T23:53:56.175Z,63.32
2023-01-30T23:54:56.124Z,62.45
2023-01-30T23:55:56.081Z,63.29
2023-01-30T23:56:56.023Z,61.29
2023-01-30T23:57:55.975Z,63.30
2023-01-30T23:58:55.931Z,59.64
2023-01-30T23:59:55.875Z,62.00
